createdAt,value
2023-01-27T00:00:29.019Z,-3.04
2023-01-27T00:02:55.608Z,-3.02
2023-01-27T00:05:22.304Z,-2.92
2023-01-27T00:07:49.800Z,-2.96
2023-01-27T00:10:19.546Z,-2.85
2023-01-27T00:13:06.476Z,-2.79
2023-01-27T00:15:34.605Z,-2.76
2023-01-27T00:18:02.312Z,-2.69
2023-01-27T00:20:47.491Z,-2.62
2023-01-27T00:23:43.199Z,-2.68
2023-01-27T00:26:16.596Z,-2.87
2023-01-27T00:28:44.856Z,-2.88
2023-01-27T00:31:33.493Z,-2.92
2023-01-27T00:34:08.984Z,-2.84
2023-01-27T00:36:37.742Z,-2.87
2023-01-27T00:39:05.665Z,-3.00
2023-01-27T00:41:33.945Z,-3.07
2023-01-27T00:44:01.483Z,-3.03
2023-01-27T00:46:28.273Z,-3.02
2023-01-27T00:48:54.820Z,-3.07
2023-01-27T00:51:21.665Z,-3.01
2023-01-27T00:53:48.908Z,-3.01
2023-01-27T00:56:17.011Z,-3.07
2023-01-27T00:58:43.629Z,-2.94
2023-01-27T01:01:13.120Z,-3.07
2023-01-27T01:03:39.986Z,-2.88
2023-01-27T01:06:09.615Z,-2.85
2023-01-27T01:08:40.632Z,-2.77
2023-01-27T01:11:10.565Z,-2.72
2023-01-27T01:13:37.974Z,-2.74
2023-01-27T01:16:06.660Z,-2.83
2023-01-27T01:18:33.930Z,-2.82
2023-01-27T01:21:00.594Z,-2.79
2023-01-27T01:23:29.196Z,-2.80
2023-01-27T01:25:57.188Z,-2.83
2023-01-27T01:28:23.994Z,-3.11
2023-01-27T01:30:53.471Z,-3.06
2023-01-27T01:33:20.053Z,-2.99
2023-01-27T01:35:46.790Z,-3.04
2023-01-27T01:38:13.410Z,-3.00
2023-01-27T01:40:44.553Z,-2.93
2023-01-27T01:43:22.784Z,-2.95
2023-01-27T01:45:55.192Z,-2.96
2023-01-27T01:48:44.734Z,-2.92
2023-01-27T01:51:18.317Z,-2.95
2023-01-27T01:54:05.279Z,-3.03
2023-01-27T01:56:49.176Z,-3.15
2023-01-27T01:59:20.815Z,-3.13
2023-01-27T02:01:47.538Z,-3.16
2023-01-27T02:04:19.687Z,-3.19
2023-01-27T02:06:54.824Z,-3.37
2023-01-27T02:09:22.496Z,-3.29
2023-01-27T02:11:49.771Z,-3.38
2023-01-27T02:14:17.777Z,-3.37
2023-01-27T02:16:44.857Z,-3.30
2023-01-27T02:19:24.879Z,-3.39
2023-01-27T02:21:54.550Z,-3.47
2023-01-27T02:24:29.965Z,-3.60
2023-01-27T02:27:00.220Z,-3.48
2023-01-27T02:29:28.686Z,-3.32
2023-01-27T02:31:55.306Z,-3.36
2023-01-27T02:34:27.381Z,-3.42
2023-01-27T02:36:58.764Z,-3.42
2023-01-27T02:39:29.091Z,-3.60
2023-01-27T02:41:57.800Z,-3.53
2023-01-27T02:44:25.793Z,-3.43
2023-01-27T02:46:52.390Z,-3.31
2023-01-27T02:49:18.996Z,-3.21
2023-01-27T02:51:45.552Z,-3.23
2023-01-27T02:54:12.147Z,-3.15
2023-01-27T02:56:39.472Z,-3.29
2023-01-27T02:59:07.158Z,-3.27
2023-01-27T03:01:38.115Z,-3.26
2023-01-27T03:04:06.080Z,-3.21
2023-01-27T03:06:33.759Z,-3.28
2023-01-27T03:09:00.281Z,-3.33
2023-01-27T03:11:46.257Z,-3.49
2023-01-27T03:14:12.870Z,-3.48
2023-01-27T03:16:58.018Z,-3.61
2023-01-27T03:19:26.655Z,-3.66
2023-01-27T03:21:54.038Z,-3.83
2023-01-27T03:24:21.415Z,-3.81
2023-01-27T03:26:48.525Z,-3.70
2023-01-27T03:29:36.371Z,-3.82
2023-01-27T03:32:03.295Z,-3.84
2023-01-27T03:34:30.750Z,-3.78
2023-01-27T03:37:23.500Z,-3.75
2023-01-27T03:40:09.577Z,-3.75
2023-01-27T03:42:54.569Z,-3.87
2023-01-27T03:45:39.724Z,-3.81
2023-01-27T03:48:06.366Z,-3.75
2023-01-27T03:50:42.105Z,-3.77
2023-01-27T03:53:09.591Z,-3.81
2023-01-27T03:55:37.879Z,-3.75
2023-01-27T03:58:18.175Z,-3.71
2023-01-27T04:00:51.919Z,-3.59
2023-01-27T04:03:37.429Z,-3.49
2023-01-27T04:06:31.444Z,-3.50
2023-01-27T04:08:58.361Z,-3.48
2023-01-27T04:11:43.775Z,-3.41
2023-01-27T04:14:12.064Z,-3.47
2023-01-27T04:16:38.913Z,-3.42
2023-01-27T04:19:06.771Z,-3.43
2023-01-27T04:21:34.119Z,-3.46
2023-01-27T04:24:01.018Z,-3.40
2023-01-27T04:26:34.432Z,-3.31
2023-01-27T04:29:02.217Z,-3.37
2023-01-27T04:31:29.051Z,-3.55
2023-01-27T04:33:56.116Z,-3.44
2023-01-27T04:36:22.786Z,-3.43
2023-01-27T04:38:49.426Z,-3.48
2023-01-27T04:41:15.993Z,-3.59
2023-01-27T04:43:42.503Z,-3.66
2023-01-27T04:46:09.683Z,-3.83
2023-01-27T04:48:36.415Z,-3.74
2023-01-27T04:51:03.020Z,-3.69
2023-01-27T04:53:29.541Z,-3.72
2023-01-27T04:56:05.862Z,-3.77
2023-01-27T04:58:32.460Z,-3.74
2023-01-27T05:00:59.007Z,-3.67
2023-01-27T05:03:25.548Z,-3.69
2023-01-27T05:05:52.130Z,-3.74
2023-01-27T05:08:18.647Z,-3.61
2023-01-27T05:10:45.334Z,-3.59
2023-01-27T05:13:11.886Z,-3.65
2023-01-27T05:15:38.676Z,-3.69
2023-01-27T05:18:05.380Z,-3.77
2023-01-27T05:20:32.072Z,-3.72
2023-01-27T05:23:18.644Z,-3.60
2023-01-27T05:25:45.198Z,-3.67
2023-01-27T05:28:12.200Z,-3.59
2023-01-27T05:30:39.016Z,-3.45
2023-01-27T05:33:05.801Z,-3.44
2023-01-27T05:35:33.831Z,-3.55
2023-01-27T05:38:00.636Z,-3.61
2023-01-27T05:40:27.473Z,-3.84
2023-01-27T05:42:54.137Z,-3.97
2023-01-27T05:45:20.775Z,-3.92
2023-01-27T05:47:51.865Z,-3.87
2023-01-27T05:50:18.764Z,-3.66
2023-01-27T05:52:45.715Z,-3.55
2023-01-27T05:55:12.555Z,-3.50
2023-01-27T05:57:39.394Z,-3.53
2023-01-27T06:00:06.634Z,-3.51
2023-01-27T06:02:34.812Z,-3.39
2023-01-27T06:05:01.387Z,-3.66
2023-01-27T06:07:27.921Z,-3.87
2023-01-27T06:09:54.460Z,-3.81
2023-01-27T06:12:20.997Z,-3.75
2023-01-27T06:14:47.519Z,-3.73
2023-01-27T06:17:14.684Z,-3.97
2023-01-27T06:19:41.248Z,-4.03
2023-01-27T06:22:08.171Z,-4.06
2023-01-27T06:24:34.782Z,-3.91
2023-01-27T06:27:01.382Z,-3.78
2023-01-27T06:29:27.963Z,-3.77
2023-01-27T06:31:54.560Z,-3.72
2023-01-27T06:34:21.128Z,-3.71
2023-01-27T06:36:48.591Z,-3.95
2023-01-27T06:39:16.608Z,-4.07
2023-01-27T06:41:43.278Z,-4.21
2023-01-27T06:44:09.828Z,-4.08
2023-01-27T06:46:36.509Z,-4.02
2023-01-27T06:49:03.079Z,-4.04
2023-01-27T06:51:29.619Z,-4.16
2023-01-27T06:53:56.184Z,-4.23
2023-01-27T06:56:22.753Z,-4.35
2023-01-27T06:58:49.389Z,-4.38
2023-01-27T07:01:15.966Z,-4.21
2023-01-27T07:03:44.709Z,-4.24
2023-01-27T07:06:16.032Z,-4.36
2023-01-27T07:08:45.679Z,-4.39
2023-01-27T07:11:12.521Z,-4.17
2023-01-27T07:13:39.076Z,-4.22
2023-01-27T07:16:05.941Z,-4.35
2023-01-27T07:18:32.581Z,-4.37
2023-01-27T07:20:59.167Z,-4.29
2023-01-27T07:23:25.754Z,-4.15
2023-01-27T07:25:52.317Z,-4.00
2023-01-27T07:28:18.885Z,-4.15
2023-01-27T07:30:45.457Z,-4.24
2023-01-27T07:33:14.608Z,-4.26
2023-01-27T07:35:42.709Z,-4.07
2023-01-27T07:38:09.741Z,-4.26
2023-01-27T07:40:36.324Z,-4.27
2023-01-27T07:43:03.099Z,-4.23
2023-01-27T07:45:30.364Z,-4.05
2023-01-27T07:48:09.987Z,-3.91
2023-01-27T07:50:36.558Z,-3.92
2023-01-27T07:53:04.811Z,-3.84
2023-01-27T07:55:33.123Z,-4.10
2023-01-27T07:58:00.007Z,-4.07
2023-01-27T08:00:28.154Z,-3.87
2023-01-27T08:02:56.171Z,-3.70
2023-01-27T08:05:23.335Z,-3.55
2023-01-27T08:07:50.661Z,-3.49
2023-01-27T08:10:18.783Z,-3.72
2023-01-27T08:12:45.729Z,-3.73
2023-01-27T08:15:12.700Z,-3.81
2023-01-27T08:17:39.353Z,-3.69
2023-01-27T08:20:06.388Z,-3.54
2023-01-27T08:22:34.350Z,-3.51
2023-01-27T08:25:01.376Z,-3.72
2023-01-27T08:27:27.942Z,-3.84
2023-01-27T08:29:54.590Z,-4.04
2023-01-27T08:32:21.184Z,-4.29
2023-01-27T08:34:48.140Z,-4.20
2023-01-27T08:37:14.750Z,-4.05
2023-01-27T08:39:41.297Z,-4.02
2023-01-27T08:42:07.939Z,-4.00
2023-01-27T08:44:34.676Z,-3.98
2023-01-27T08:47:01.226Z,-4.01
2023-01-27T08:49:27.767Z,-3.88
2023-01-27T08:51:54.332Z,-3.82
2023-01-27T08:54:21.003Z,-3.64
2023-01-27T08:56:47.552Z,-3.53
2023-01-27T08:59:14.174Z,-3.43
2023-01-27T09:01:41.712Z,-3.48
2023-01-27T09:04:08.396Z,-3.56
2023-01-27T09:06:34.987Z,-3.74
2023-01-27T09:09:11.971Z,-3.85
2023-01-27T09:11:42.896Z,-3.84
2023-01-27T09:14:12.324Z,-3.77
2023-01-27T09:16:38.935Z,-3.72
2023-01-27T09:19:05.667Z,-3.72
2023-01-27T09:21:32.277Z,-3.79
2023-01-27T09:23:58.907Z,-4.02
2023-01-27T09:26:25.508Z,-3.81
2023-01-27T09:28:52.171Z,-3.66
2023-01-27T09:31:18.838Z,-3.50
2023-01-27T09:33:45.545Z,-3.53
2023-01-27T09:36:17.304Z,-3.48
2023-01-27T09:38:49.893Z,-3.47
2023-01-27T09:41:44.420Z,-3.49
2023-01-27T09:44:30.725Z,-3.54
2023-01-27T09:47:02.558Z,-3.48
2023-01-27T09:49:41.345Z,-3.45
2023-01-27T09:52:47.636Z,-3.35
2023-01-27T09:55:29.927Z,-3.61
2023-01-27T09:58:01.957Z,-3.67
2023-01-27T10:00:42.870Z,-3.70
2023-01-27T10:03:24.987Z,-3.67
2023-01-27T10:06:20.036Z,-3.61
2023-01-27T10:09:00.754Z,-3.51
2023-01-27T10:11:37.998Z,-3.39
2023-01-27T10:14:25.781Z,-3.43
2023-01-27T10:17:12.991Z,-3.19
2023-01-27T10:19:40.632Z,-3.14
2023-01-27T10:22:28.863Z,-2.92
2023-01-27T10:25:05.305Z,-2.87
2023-01-27T10:27:47.688Z,-2.91
2023-01-27T10:30:36.906Z,-2.83
2023-01-27T10:33:19.778Z,-2.64
2023-01-27T10:35:56.973Z,-2.55
2023-01-27T10:38:29.490Z,-2.64
2023-01-27T10:41:07.511Z,-2.87
2023-01-27T10:44:07.490Z,-3.04
2023-01-27T10:46:57.230Z,-3.08
2023-01-27T10:49:30.242Z,-3.00
2023-01-27T10:52:13.120Z,-2.86
2023-01-27T10:54:46.682Z,-2.89
2023-01-27T10:57:20.891Z,-3.14
2023-01-27T11:00:21.880Z,-3.43
2023-01-27T11:02:53.580Z,-3.55
2023-01-27T11:05:31.030Z,-3.52
2023-01-27T11:08:07.227Z,-3.46
2023-01-27T11:10:38.852Z,-3.60
2023-01-27T11:13:12.353Z,-3.52
2023-01-27T11:15:38.931Z,-3.51
2023-01-27T11:18:26.355Z,-3.35
2023-01-27T11:20:55.538Z,-3.30
2023-01-27T11:23:27.846Z,-3.16
2023-01-27T11:26:13.498Z,-2.96
2023-01-27T11:29:10.015Z,-2.87
2023-01-27T11:31:56.921Z,-2.69
2023-01-27T11:34:35.846Z,-2.87
2023-01-27T11:37:16.453Z,-3.07
2023-01-27T11:39:43.162Z,-3.26
2023-01-27T11:42:11.459Z,-3.39
2023-01-27T11:44:40.796Z,-3.50
2023-01-27T11:47:10.811Z,-3.58
2023-01-27T11:49:44.918Z,-3.54
2023-01-27T11:52:18.323Z,-3.45
2023-01-27T11:55:03.629Z,-3.48
2023-01-27T11:57:30.918Z,-3.50
2023-01-27T12:00:02.980Z,-3.55
2023-01-27T12:02:44.843Z,-3.30
2023-01-27T12:05:16.486Z,-3.18
2023-01-27T12:07:56.220Z,-2.96
2023-01-27T12:10:33.636Z,-2.60
2023-01-27T12:13:20.862Z,-2.71
2023-01-27T12:16:00.920Z,-2.63
2023-01-27T12:18:33.078Z,-2.45
2023-01-27T12:21:01.685Z,-2.56
2023-01-27T12:23:33.543Z,-2.36
2023-01-27T12:26:12.028Z,-2.13
2023-01-27T12:28:47.757Z,-2.69
2023-01-27T12:31:23.409Z,-2.69
2023-01-27T12:33:59.670Z,-2.72
2023-01-27T12:36:30.000Z,-2.62
2023-01-27T12:39:01.252Z,-2.45
2023-01-27T12:41:30.927Z,-2.32
2023-01-27T12:44:07.506Z,-2.62
2023-01-27T12:46:34.282Z,-2.52
2023-01-27T12:49:13.276Z,-2.56
2023-01-27T12:51:48.317Z,-2.57
2023-01-27T12:54:23.788Z,-2.69
2023-01-27T12:56:53.198Z,-2.65
2023-01-27T12:59:23.574Z,-2.57
2023-01-27T13:02:22.658Z,-2.87
2023-01-27T13:04:56.969Z,-2.74
2023-01-27T13:07:45.801Z,-2.69
2023-01-27T13:10:23.777Z,-2.98
2023-01-27T13:12:54.193Z,-3.15
2023-01-27T13:15:23.799Z,-3.22
2023-01-27T13:17:51.193Z,-3.25
2023-01-27T13:20:30.651Z,-3.19
2023-01-27T13:23:13.604Z,-3.00
2023-01-27T13:25:52.970Z,-2.91
2023-01-27T13:28:28.084Z,-2.96
2023-01-27T13:31:02.657Z,-2.99
2023-01-27T13:33:44.858Z,-3.19
2023-01-27T13:36:31.905Z,-3.27
2023-01-27T13:39:04.247Z,-3.09
2023-01-27T13:42:00.145Z,-2.88
2023-01-27T13:44:36.459Z,-2.77
2023-01-27T13:47:12.583Z,-2.73
2023-01-27T13:49:47.841Z,-2.70
2023-01-27T13:52:14.536Z,-2.64
2023-01-27T13:54:41.873Z,-2.56
2023-01-27T13:57:40.689Z,-2.57
2023-01-27T14:00:27.515Z,-2.98
2023-01-27T14:03:24.529Z,-3.12
2023-01-27T14:06:08.365Z,-3.15
2023-01-27T14:09:11.303Z,-3.52
2023-01-27T14:12:10.149Z,-3.42
2023-01-27T14:15:01.775Z,-3.44
2023-01-27T14:17:39.707Z,-3.69
2023-01-27T14:20:24.811Z,-3.52
2023-01-27T14:23:08.966Z,-3.47
2023-01-27T14:26:08.515Z,-3.50
2023-01-27T14:29:07.210Z,-3.41
2023-01-27T14:31:52.034Z,-3.43
2023-01-27T14:34:36.355Z,-3.30
2023-01-27T14:37:24.102Z,-3.29
2023-01-27T14:40:24.466Z,-3.13
2023-01-27T14:43:45.054Z,-2.98
2023-01-27T14:46:20.322Z,-2.94
2023-01-27T14:49:11.883Z,-2.96
2023-01-27T14:51:50.618Z,-3.08
2023-01-27T14:54:38.604Z,-3.05
2023-01-27T14:57:38.562Z,-2.99
2023-01-27T15:00:24.804Z,-3.02
2023-01-27T15:03:25.519Z,-3.10
2023-01-27T15:06:02.713Z,-3.06
2023-01-27T15:09:01.573Z,-3.31
2023-01-27T15:11:46.301Z,-3.29
2023-01-27T15:14:46.675Z,-3.24
2023-01-27T15:17:25.408Z,-3.31
2023-01-27T15:20:06.460Z,-3.48
2023-01-27T15:22:47.793Z,-3.41
2023-01-27T15:25:34.268Z,-3.48
2023-01-27T15:28:02.588Z,-3.49
2023-01-27T15:30:33.242Z,-3.46
2023-01-27T15:33:00.390Z,-3.34
2023-01-27T15:35:36.218Z,-3.35
2023-01-27T15:38:05.685Z,-3.24
2023-01-27T15:41:04.711Z,-3.26
2023-01-27T15:43:32.124Z,-3.36
2023-01-27T15:46:19.933Z,-3.36
2023-01-27T15:48:47.522Z,-3.30
2023-01-27T15:51:19.552Z,-3.32
2023-01-27T15:53:51.317Z,-3.24
2023-01-27T15:56:17.847Z,-3.30
2023-01-27T15:58:53.465Z,-3.33
2023-01-27T16:01:28.767Z,-3.30
2023-01-27T16:04:21.007Z,-3.24
2023-01-27T16:06:54.081Z,-3.12
2023-01-27T16:09:35.351Z,-3.28
2023-01-27T16:12:27.030Z,-3.55
2023-01-27T16:15:15.727Z,-3.69
2023-01-27T16:17:59.513Z,-3.72
2023-01-27T16:20:32.878Z,-3.75
2023-01-27T16:23:02.909Z,-3.69
2023-01-27T16:25:43.980Z,-3.84
2023-01-27T16:28:19.088Z,-3.85
2023-01-27T16:31:02.659Z,-3.69
2023-01-27T16:33:39.628Z,-3.67
2023-01-27T16:36:07.209Z,-3.61
2023-01-27T16:38:39.473Z,-3.49
2023-01-27T16:41:39.254Z,-3.46
2023-01-27T16:44:24.661Z,-3.31
2023-01-27T16:47:15.121Z,-3.35
2023-01-27T16:49:43.707Z,-3.26
2023-01-27T16:52:24.650Z,-3.31
2023-01-27T16:54:58.166Z,-3.27
2023-01-27T16:57:24.683Z,-3.36
2023-01-27T16:59:52.197Z,-3.51
2023-01-27T17:02:25.374Z,-3.46
2023-01-27T17:04:56.131Z,-3.33
2023-01-27T17:07:23.276Z,-3.30
2023-01-27T17:09:55.335Z,-3.37
2023-01-27T17:12:36.471Z,-3.29
2023-01-27T17:15:17.165Z,-3.21
2023-01-27T17:17:44.071Z,-3.23
2023-01-27T17:20:22.602Z,-3.21
2023-01-27T17:22:54.210Z,-3.25
2023-01-27T17:25:29.536Z,-3.25
2023-01-27T17:27:59.424Z,-3.34
2023-01-27T17:30:33.366Z,-3.45
2023-01-27T17:33:02.552Z,-3.40
2023-01-27T17:35:40.670Z,-3.37
2023-01-27T17:38:42.240Z,-3.56
2023-01-27T17:41:25.504Z,-3.72
2023-01-27T17:43:52.499Z,-3.77
2023-01-27T17:46:22.130Z,-3.85
2023-01-27T17:48:53.228Z,-3.77
2023-01-27T17:51:23.882Z,-3.73
2023-01-27T17:53:52.839Z,-3.72
2023-01-27T17:56:28.879Z,-3.72
2023-01-27T17:59:00.706Z,-3.60
2023-01-27T18:01:27.679Z,-3.49
2023-01-27T18:03:57.253Z,-3.54
2023-01-27T18:06:27.679Z,-3.61
2023-01-27T18:08:56.944Z,-3.50
2023-01-27T18:11:33.723Z,-3.50
2023-01-27T18:14:09.951Z,-3.49
2023-01-27T18:16:36.676Z,-3.44
2023-01-27T18:19:09.333Z,-3.44
2023-01-27T18:21:36.790Z,-3.42
2023-01-27T18:24:21.193Z,-3.50
2023-01-27T18:26:49.033Z,-3.40
2023-01-27T18:29:36.805Z,-3.32
2023-01-27T18:32:18.134Z,-3.42
2023-01-27T18:34:51.544Z,-3.34
2023-01-27T18:37:31.681Z,-3.44
2023-01-27T18:40:00.398Z,-3.36
2023-01-27T18:42:29.827Z,-3.26
2023-01-27T18:44:57.066Z,-3.28
2023-01-27T18:47:33.634Z,-3.56
2023-01-27T18:50:01.587Z,-3.59
2023-01-27T18:52:29.129Z,-3.48
2023-01-27T18:55:02.497Z,-3.56
2023-01-27T18:57:29.130Z,-3.48
2023-01-27T18:59:55.717Z,-3.41
2023-01-27T19:02:22.373Z,-3.32
2023-01-27T19:04:49.065Z,-3.30
2023-01-27T19:07:17.465Z,-3.52
2023-01-27T19:09:45.565Z,-3.61
2023-01-27T19:12:12.642Z,-3.53
2023-01-27T19:14:41.756Z,-3.53
2023-01-27T19:17:22.657Z,-3.49
2023-01-27T19:19:49.474Z,-3.51
2023-01-27T19:22:17.952Z,-3.49
2023-01-27T19:24:45.501Z,-3.40
2023-01-27T19:27:14.540Z,-3.54
2023-01-27T19:29:41.634Z,-3.52
2023-01-27T19:32:22.197Z,-3.44
2023-01-27T19:34:48.935Z,-3.44
2023-01-27T19:37:18.643Z,-3.47
2023-01-27T19:39:49.097Z,-3.43
2023-01-27T19:42:16.327Z,-3.51
2023-01-27T19:44:43.147Z,-3.60
2023-01-27T19:47:11.550Z,-3.58
2023-01-27T19:49:38.259Z,-3.49
2023-01-27T19:52:04.852Z,-3.49
2023-01-27T19:54:31.751Z,-3.41
2023-01-27T19:56:58.567Z,-3.41
2023-01-27T19:59:25.217Z,-3.46
2023-01-27T20:01:51.888Z,-3.43
2023-01-27T20:04:18.928Z,-3.36
2023-01-27T20:06:50.405Z,-3.44
2023-01-27T20:09:17.127Z,-3.41
2023-01-27T20:11:44.398Z,-3.63
2023-01-27T20:14:14.246Z,-3.58
2023-01-27T20:16:42.265Z,-3.47
2023-01-27T20:19:09.214Z,-3.33
2023-01-27T20:21:36.220Z,-3.26
2023-01-27T20:24:03.179Z,-3.26
2023-01-27T20:26:31.343Z,-3.36
2023-01-27T20:28:58.422Z,-3.41
2023-01-27T20:31:25.472Z,-3.48
2023-01-27T20:33:52.394Z,-3.43
2023-01-27T20:36:22.015Z,-3.33
2023-01-27T20:38:49.143Z,-3.28
2023-01-27T20:41:18.944Z,-3.26
2023-01-27T20:43:46.151Z,-3.25
2023-01-27T20:46:14.899Z,-3.14
2023-01-27T20:48:41.891Z,-3.08
2023-01-27T20:51:12.380Z,-3.08
2023-01-27T20:53:45.587Z,-3.08
2023-01-27T20:56:18.049Z,-3.12
2023-01-27T20:58:45.679Z,-3.20
2023-01-27T21:01:18.178Z,-3.28
2023-01-27T21:03:45.141Z,-3.19
2023-01-27T21:06:13.542Z,-3.10
2023-01-27T21:08:40.306Z,-3.10
2023-01-27T21:11:10.735Z,-3.07
2023-01-27T21:13:37.771Z,-3.07
2023-01-27T21:16:04.856Z,-3.02
2023-01-27T21:18:31.830Z,-3.09
2023-01-27T21:21:02.842Z,-3.08
2023-01-27T21:23:32.559Z,-2.99
2023-01-27T21:26:10.444Z,-3.21
2023-01-27T21:28:37.367Z,-3.22
2023-01-27T21:31:11.835Z,-3.09
2023-01-27T21:33:39.849Z,-3.16
2023-01-27T21:36:10.310Z,-3.28
2023-01-27T21:38:38.411Z,-3.24
2023-01-27T21:41:05.915Z,-3.12
2023-01-27T21:43:51.245Z,-3.04
2023-01-27T21:46:18.287Z,-2.98
2023-01-27T21:48:44.915Z,-2.94
2023-01-27T21:51:11.768Z,-2.99
2023-01-27T21:53:38.578Z,-2.89
2023-01-27T21:56:06.701Z,-3.00
2023-01-27T21:58:33.548Z,-2.97
2023-01-27T22:01:10.844Z,-3.03
2023-01-27T22:03:38.088Z,-3.11
2023-01-27T22:06:07.268Z,-3.14
2023-01-27T22:08:34.471Z,-3.06
2023-01-27T22:11:12.279Z,-2.94
2023-01-27T22:13:39.443Z,-3.08
2023-01-27T22:16:06.614Z,-3.09
2023-01-27T22:18:33.231Z,-3.12
2023-01-27T22:21:02.781Z,-3.14
2023-01-27T22:23:29.349Z,-3.21
2023-01-27T22:25:55.903Z,-3.29
2023-01-27T22:28:26.551Z,-3.20
2023-01-27T22:30:53.432Z,-3.11
2023-01-27T22:33:20.008Z,-3.03
2023-01-27T22:35:46.566Z,-2.99
2023-01-27T22:38:13.271Z,-2.97
2023-01-27T22:40:40.043Z,-2.89
2023-01-27T22:43:10.095Z,-2.74
2023-01-27T22:45:40.537Z,-2.70
2023-01-27T22:48:08.685Z,-2.75
2023-01-27T22:50:36.055Z,-2.74
2023-01-27T22:53:04.136Z,-2.78
2023-01-27T22:55:30.710Z,-2.70
2023-01-27T22:57:57.398Z,-2.74
2023-01-27T23:00:23.951Z,-2.84
2023-01-27T23:02:50.499Z,-2.78
2023-01-27T23:05:17.412Z,-2.83
2023-01-27T23:07:44.221Z,-2.86
2023-01-27T23:10:11.017Z,-2.87
2023-01-27T23:12:37.580Z,-2.93
2023-01-27T23:15:04.627Z,-3.01
2023-01-27T23:17:31.267Z,-2.88
2023-01-27T23:19:58.044Z,-2.87
2023-01-27T23:22:26.011Z,-2.89
2023-01-27T23:24:52.704Z,-2.91
2023-01-27T23:27:19.361Z,-2.85
2023-01-27T23:29:46.009Z,-2.85
2023-01-27T23:32:12.597Z,-2.79
2023-01-27T23:34:39.226Z,-2.70
2023-01-27T23:37:05.854Z,-2.69
2023-01-27T23:39:32.456Z,-2.64
2023-01-27T23:41:59.026Z,-2.60
2023-01-27T23:44:25.554Z,-2.58
2023-01-27T23:46:52.117Z,-2.56
2023-01-27T23:49:18.692Z,-2.56
2023-01-27T23:51:45.296Z,-2.65
2023-01-27T23:54:11.914Z,-2.65
2023-01-27T23:56:38.602Z,-2.62
2023-01-27T23:59:05.141Z,-2.63
